sensor_id;sensor_type;location;lat;lon;timestamp;pressure;altitude;pressure_sealevel;temperature;humidity
14612;BME280;7392;52.078;11.650;2024-01-30T00:00:13;102158.38;;;-0.24;100.00
14612;BME280;7392;52.078;11.650;2024-01-30T00:02:41;102151.22;;;-0.26;100.00
14612;BME280;7392;52.078;11.650;2024-01-30T00:05:09;102172.13;;;-0.26;100.00
14612;BME280;7392;52.078;11.650;2024-01-30T00:07:39;102164.19;;;-0.28;100.00
14612;BME280;7392;52.078;11.650;2024-01-30T00:10:07;102162.41;;;-0.29;100.00
14612;BME280;7392;52.078;11.650;2024-01-30T00:12:35;102153.53;;;-0.31;100.00
14612;BME280;7392;52.078;11.650;2024-01-30T00:15:04;102153.53;;;-0.31;100.00
14612;BME280;7392;52.078;11.650;2024-01-30T00:17:35;102151.75;;;-0.32;100.00
14612;BME280;7392;52.078;11.650;2024-01-30T00:20:03;102161.19;;;-0.34;100.00
14612;BME280;7392;52.078;11.650;2024-01-30T00:22:32;102161.09;;;-0.35;100.00
14612;BME280;7392;52.078;11.650;2024-01-30T00:25:02;102164.41;;;-0.38;100.00
14612;BME280;7392;52.078;11.650;2024-01-30T00:27:30;102163.50;;;-0.39;100.00
14612;BME280;7392;52.078;11.650;2024-01-30T00:29:58;102161.69;;;-0.40;100.00
14612;BME280;7392;52.078;11.650;2024-01-30T00:32:26;102153.69;;;-0.43;100.00
14612;BME280;7392;52.078;11.650;2024-01-30T00:34:54;102155.25;;;-0.45;100.00
14612;BME280;7392;52.078;11.650;2024-01-30T00:37:22;102147.31;;;-0.46;100.00
14612;BME280;7392;52.078;11.650;2024-01-30T00:39:50;102146.31;;;-0.48;100.00
14612;BME280;7392;52.078;11.650;2024-01-30T00:42:19;102146.22;;;-0.50;100.00
14612;BME280;7392;52.078;11.650;2024-01-30T00:44:47;102148.75;;;-0.51;100.00
14612;BME280;7392;52.078;11.650;2024-01-30T00:47:15;102144.22;;;-0.54;100.00
14612;BME280;7392;52.078;11.650;2024-01-30T00:49:43;102152.06;;;-0.54;100.00
14612;BME280;7392;52.078;11.650;2024-01-30T00:52:11;102152.84;;;-0.55;100.00
14612;BME280;7392;52.078;11.650;2024-01-30T00:54:39;102162.41;;;-0.55;100.00
14612;BME280;7392;52.078;11.650;2024-01-30T00:57:08;102150.06;;;-0.58;100.00
14612;BME280;7392;52.078;11.650;2024-01-30T00:59:37;102145.66;;;-0.59;100.00
14612;BME280;7392;52.078;11.650;2024-01-30T01:02:05;102142.13;;;-0.60;100.00
14612;BME280;7392;52.078;11.650;2024-01-30T01:04:33;102135.09;;;-0.61;100.00
14612;BME280;7392;52.078;11.650;2024-01-30T01:07:01;102142.81;;;-0.62;100.00
14612;BME280;7392;52.078;11.650;2024-01-30T01:09:29;102141.94;;;-0.63;100.00
14612;BME280;7392;52.078;11.650;2024-01-30T01:11:57;102135.81;;;-0.63;100.00
14612;BME280;7392;52.078;11.650;2024-01-30T01:14:24;102130.59;;;-0.63;100.00
14612;BME280;7392;52.078;11.650;2024-01-30T01:16:54;102136.50;;;-0.66;100.00
14612;BME280;7392;52.078;11.650;2024-01-30T01:19:22;102122.47;;;-0.68;100.00
14612;BME280;7392;52.078;11.650;2024-01-30T01:21:50;102122.34;;;-0.69;100.00
14612;BME280;7392;52.078;11.650;2024-01-30T01:24:18;102119.75;;;-0.69;100.00
14612;BME280;7392;52.078;11.650;2024-01-30T01:26:46;102114.41;;;-0.71;100.00
14612;BME280;7392;52.078;11.650;2024-01-30T01:29:14;102123.16;;;-0.70;100.00
14612;BME280;7392;52.078;11.650;2024-01-30T01:31:42;102123.97;;;-0.71;100.00
14612;BME280;7392;52.078;11.650;2024-01-30T01:34:12;102125.66;;;-0.72;100.00
14612;BME280;7392;52.078;11.650;2024-01-30T01:36:40;102106.38;;;-0.74;100.00
14612;BME280;7392;52.078;11.650;2024-01-30T01:39:08;102115.94;;;-0.74;100.00
14612;BME280;7392;52.078;11.650;2024-01-30T01:41:37;102110.72;;;-0.74;100.00
14612;BME280;7392;52.078;11.650;2024-01-30T01:44:05;102111.59;;;-0.74;100.00
14612;BME280;7392;52.078;11.650;2024-01-30T01:46:34;102116.81;;;-0.74;100.00
14612;BME280;7392;52.078;11.650;2024-01-30T01:49:03;102119.44;;;-0.74;100.00
14612;BME280;7392;52.078;11.650;2024-01-30T01:51:35;102130.69;;;-0.75;100.00
14612;BME280;7392;52.078;11.650;2024-01-30T01:54:04;102129.78;;;-0.76;100.00
14612;BME280;7392;52.078;11.650;2024-01-30T01:56:33;102133.88;;;-0.79;100.00
14612;BME280;7392;52.078;11.650;2024-01-30T01:59:05;102126.88;;;-0.80;100.00
14612;BME280;7392;52.078;11.650;2024-01-30T02:01:33;102126.78;;;-0.82;100.00
14612;BME280;7392;52.078;11.650;2024-01-30T02:04:01;102128.56;;;-0.81;100.00
14612;BME280;7392;52.078;11.650;2024-01-30T02:06:29;102125.84;;;-0.82;100.00
14612;BME280;7392;52.078;11.650;2024-01-30T02:08:59;102124.06;;;-0.83;100.00
14612;BME280;7392;52.078;11.650;2024-01-30T02:11:28;102117.13;;;-0.83;100.00
14612;BME280;7392;52.078;11.650;2024-01-30T02:13:56;102130.19;;;-0.83;100.00
14612;BME280;7392;52.078;11.650;2024-01-30T02:16:23;102125.75;;;-0.84;100.00
14612;BME280;7392;52.078;11.650;2024-01-30T02:18:51;102125.75;;;-0.84;100.00
14612;BME280;7392;52.078;11.650;2024-01-30T02:21:21;102120.47;;;-0.85;100.00
14612;BME280;7392;52.078;11.650;2024-01-30T02:23:49;102120.47;;;-0.85;100.00
14612;BME280;7392;52.078;11.650;2024-01-30T02:26:18;102120.47;;;-0.85;100.00
14612;BME280;7392;52.078;11.650;2024-01-30T02:28:46;102117.75;;;-0.87;100.00
14612;BME280;7392;52.078;11.650;2024-01-30T02:31:14;102108.09;;;-0.88;100.00
14612;BME280;7392;52.078;11.650;2024-01-30T02:33:42;102103.59;;;-0.90;100.00
14612;BME280;7392;52.078;11.650;2024-01-30T02:36:10;102111.41;;;-0.90;100.00
14612;BME280;7392;52.078;11.650;2024-01-30T02:38:39;102101.66;;;-0.93;100.00
14612;BME280;7392;52.078;11.650;2024-01-30T02:41:07;102113.00;;;-0.92;100.00
14612;BME280;7392;52.078;11.650;2024-01-30T02:43:35;102112.91;;;-0.94;100.00
14612;BME280;7392;52.078;11.650;2024-01-30T02:46:03;102118.94;;;-0.95;100.00
14612;BME280;7392;52.078;11.650;2024-01-30T02:48:32;102116.22;;;-0.97;100.00
14612;BME280;7392;52.078;11.650;2024-01-30T02:51:00;102116.13;;;-0.98;100.00
14612;BME280;7392;52.078;11.650;2024-01-30T02:53:28;102102.97;;;-1.00;100.00
14612;BME280;7392;52.078;11.650;2024-01-30T02:55:57;102106.41;;;-1.01;100.00
14612;BME280;7392;52.078;11.650;2024-01-30T02:58:25;102100.16;;;-1.03;100.00
14612;BME280;7392;52.078;11.650;2024-01-30T03:00:53;102094.03;;;-1.03;100.00
14612;BME280;7392;52.078;11.650;2024-01-30T03:03:21;102102.66;;;-1.04;100.00
14612;BME280;7392;52.078;11.650;2024-01-30T03:05:50;102094.75;;;-1.06;100.00
14612;BME280;7392;52.078;11.650;2024-01-30T03:08:17;102106.88;;;-1.06;100.00
14612;BME280;7392;52.078;11.650;2024-01-30T03:10:46;102096.44;;;-1.06;100.00
14612;BME280;7392;52.078;11.650;2024-01-30T03:13:15;102097.38;;;-1.06;100.00
14612;BME280;7392;52.078;11.650;2024-01-30T03:15:43;102093.94;;;-1.05;100.00
14612;BME280;7392;52.078;11.650;2024-01-30T03:18:11;102091.31;;;-1.05;100.00
14612;BME280;7392;52.078;11.650;2024-01-30T03:20:39;102089.53;;;-1.06;100.00
14612;BME280;7392;52.078;11.650;2024-01-30T03:23:07;102092.03;;;-1.07;100.00
14612;BME280;7392;52.078;11.650;2024-01-30T03:25:35;102091.22;;;-1.06;100.00
14612;BME280;7392;52.078;11.650;2024-01-30T03:28:04;102088.50;;;-1.08;100.00
14612;BME280;7392;52.078;11.650;2024-01-30T03:30:34;102092.81;;;-1.08;100.00
14612;BME280;7392;52.078;11.650;2024-01-30T03:33:02;102087.63;;;-1.08;100.00
14612;BME280;7392;52.078;11.650;2024-01-30T03:35:30;102085.91;;;-1.08;100.00
14612;BME280;7392;52.078;11.650;2024-01-30T03:37:57;102094.75;;;-1.06;100.00
14612;BME280;7392;52.078;11.650;2024-01-30T03:40:25;102097.53;;;-1.03;100.00
14612;BME280;7392;52.078;11.650;2024-01-30T03:42:54;102089.81;;;-1.01;100.00
14612;BME280;7392;52.078;11.650;2024-01-30T03:45:22;102086.31;;;-1.02;100.00
14612;BME280;7392;52.078;11.650;2024-01-30T03:47:51;102095.84;;;-1.02;100.00
14612;BME280;7392;52.078;11.650;2024-01-30T03:50:19;102089.72;;;-1.03;100.00
14612;BME280;7392;52.078;11.650;2024-01-30T03:52:47;102090.53;;;-1.04;100.00
14612;BME280;7392;52.078;11.650;2024-01-30T03:55:15;102084.31;;;-1.06;100.00
14612;BME280;7392;52.078;11.650;2024-01-30T03:57:43;102079.09;;;-1.06;100.00
14612;BME280;7392;52.078;11.650;2024-01-30T04:00:12;102079.09;;;-1.06;100.00
14612;BME280;7392;52.078;11.650;2024-01-30T04:02:40;102078.19;;;-1.06;100.00
14612;BME280;7392;52.078;11.650;2024-01-30T04:05:10;102076.50;;;-1.06;100.00
14612;BME280;7392;52.078;11.650;2024-01-30T04:07:38;102081.59;;;-1.07;100.00
14612;BME280;7392;52.078;11.650;2024-01-30T04:10:07;102073.78;;;-1.07;100.00
14612;BME280;7392;52.078;11.650;2024-01-30T04:12:35;102068.34;;;-1.10;100.00
14612;BME280;7392;52.078;11.650;2024-01-30T04:15:04;102077.06;;;-1.10;100.00
14612;BME280;7392;52.078;11.650;2024-01-30T04:17:32;102079.69;;;-1.10;100.00
14612;BME280;7392;52.078;11.650;2024-01-30T04:19:59;102076.97;;;-1.11;100.00
14612;BME280;7392;52.078;11.650;2024-01-30T04:22:28;102072.56;;;-1.13;100.00
14612;BME280;7392;52.078;11.650;2024-01-30T04:24:56;102078.69;;;-1.12;100.00
14612;BME280;7392;52.078;11.650;2024-01-30T04:27:25;102083.91;;;-1.12;100.00
14612;BME280;7392;52.078;11.650;2024-01-30T04:29:52;102084.69;;;-1.13;100.00
14612;BME280;7392;52.078;11.650;2024-01-30T04:32:20;102089.91;;;-1.13;100.00
14612;BME280;7392;52.078;11.650;2024-01-30T04:34:48;102082.91;;;-1.14;100.00
14612;BME280;7392;52.078;11.650;2024-01-30T04:37:17;102078.47;;;-1.15;100.00
14612;BME280;7392;52.078;11.650;2024-01-30T04:39:46;102082.81;;;-1.16;100.00
14612;BME280;7392;52.078;11.650;2024-01-30T04:42:14;102089.72;;;-1.16;100.00
14612;BME280;7392;52.078;11.650;2024-01-30T04:44:42;102076.59;;;-1.18;100.00
14612;BME280;7392;52.078;11.650;2024-01-30T04:47:10;102094.03;;;-1.17;100.00
14612;BME280;7392;52.078;11.650;2024-01-30T04:49:38;102095.72;;;-1.17;100.00
14612;BME280;7392;52.078;11.650;2024-01-30T04:52:07;102093.13;;;-1.17;100.00
14612;BME280;7392;52.078;11.650;2024-01-30T04:54:36;102088.69;;;-1.18;100.00
14612;BME280;7392;52.078;11.650;2024-01-30T04:57:05;102090.53;;;-1.17;100.00
14612;BME280;7392;52.078;11.650;2024-01-30T04:59:36;102084.41;;;-1.18;100.00
14612;BME280;7392;52.078;11.650;2024-01-30T05:02:04;102080.09;;;-1.17;100.00
14612;BME280;7392;52.078;11.650;2024-01-30T05:04:32;102081.97;;;-1.15;100.00
14612;BME280;7392;52.078;11.650;2024-01-30T05:07:00;102083.19;;;-1.09;100.00
14612;BME280;7392;52.078;11.650;2024-01-30T05:09:28;102079.78;;;-1.08;100.00
14612;BME280;7392;52.078;11.650;2024-01-30T05:11:56;102078.19;;;-1.06;100.00
14612;BME280;7392;52.078;11.650;2024-01-30T05:14:26;102076.66;;;-1.03;100.00
14612;BME280;7392;52.078;11.650;2024-01-30T05:16:54;102067.97;;;-1.03;100.00
14612;BME280;7392;52.078;11.650;2024-01-30T05:19:22;102064.66;;;-1.01;100.00
14612;BME280;7392;52.078;11.650;2024-01-30T05:21:50;102063.06;;;-0.99;100.00
14612;BME280;7392;52.078;11.650;2024-01-30T05:24:18;102067.44;;;-0.98;100.00
14612;BME280;7392;52.078;11.650;2024-01-30T05:26:47;102057.84;;;-0.99;100.00
14612;BME280;7392;52.078;11.650;2024-01-30T05:29:17;102063.94;;;-0.98;100.00
14612;BME280;7392;52.078;11.650;2024-01-30T05:31:47;102064.03;;;-0.97;100.00
14612;BME280;7392;52.078;11.650;2024-01-30T05:34:16;102070.25;;;-0.95;100.00
14612;BME280;7392;52.078;11.650;2024-01-30T05:36:44;102065.03;;;-0.95;100.00
14612;BME280;7392;52.078;11.650;2024-01-30T05:39:13;102061.66;;;-0.93;100.00
14612;BME280;7392;52.078;11.650;2024-01-30T05:41:41;102062.75;;;-0.90;100.00
14612;BME280;7392;52.078;11.650;2024-01-30T05:44:09;102060.13;;;-0.90;100.00
14612;BME280;7392;52.078;11.650;2024-01-30T05:46:39;102064.53;;;-0.89;100.00
14612;BME280;7392;52.078;11.650;2024-01-30T05:49:08;102061.84;;;-0.90;100.00
14612;BME280;7392;52.078;11.650;2024-01-30T05:51:36;102067.06;;;-0.90;100.00
14612;BME280;7392;52.078;11.650;2024-01-30T05:54:04;102062.75;;;-0.90;100.00
14612;BME280;7392;52.078;11.650;2024-01-30T05:56:32;102068.97;;;-0.88;100.00
14612;BME280;7392;52.078;11.650;2024-01-30T05:59:00;102061.22;;;-0.86;100.00
14612;BME280;7392;52.078;11.650;2024-01-30T06:01:28;102057.84;;;-0.85;100.00
14612;BME280;7392;52.078;11.650;2024-01-30T06:03:56;102065.66;;;-0.85;100.00
14612;BME280;7392;52.078;11.650;2024-01-30T06:06:26;102050.00;;;-0.85;100.00
14612;BME280;7392;52.078;11.650;2024-01-30T06:08:54;102060.13;;;-0.90;100.00
14612;BME280;7392;52.078;11.650;2024-01-30T06:11:23;102059.13;;;-0.92;100.00
14612;BME280;7392;52.078;11.650;2024-01-30T06:13:51;102058.94;;;-0.95;100.00
14612;BME280;7392;52.078;11.650;2024-01-30T06:16:19;102052.81;;;-0.96;100.00
14612;BME280;7392;52.078;11.650;2024-01-30T06:18:48;102045.00;;;-0.96;100.00
14612;BME280;7392;52.078;11.650;2024-01-30T06:21:16;102041.34;;;-0.98;100.00
14612;BME280;7392;52.078;11.650;2024-01-30T06:23:45;102043.19;;;-0.97;100.00
14612;BME280;7392;52.078;11.650;2024-01-30T06:26:13;102040.78;;;-0.93;100.00
14612;BME280;7392;52.078;11.650;2024-01-30T06:28:41;102047.88;;;-0.91;100.00
14612;BME280;7392;52.078;11.650;2024-01-30T06:31:11;102051.41;;;-0.90;100.00
14612;BME280;7392;52.078;11.650;2024-01-30T06:33:39;102047.78;;;-0.92;100.00
14612;BME280;7392;52.078;11.650;2024-01-30T06:36:09;102052.31;;;-0.90;100.00
14612;BME280;7392;52.078;11.650;2024-01-30T06:38:37;102057.63;;;-0.88;100.00
14612;BME280;7392;52.078;11.650;2024-01-30T06:41:07;102062.75;;;-0.90;100.00
14612;BME280;7392;52.078;11.650;2024-01-30T06:43:35;102060.34;;;-0.87;100.00
14612;BME280;7392;52.078;11.650;2024-01-30T06:46:03;102050.19;;;-0.82;100.00
14612;BME280;7392;52.078;11.650;2024-01-30T06:48:31;102056.44;;;-0.80;100.00
14612;BME280;7392;52.078;11.650;2024-01-30T06:51:00;102054.59;;;-0.81;100.00
14612;BME280;7392;52.078;11.650;2024-01-30T06:53:28;102061.53;;;-0.82;100.00
14612;BME280;7392;52.078;11.650;2024-01-30T06:55:56;102053.72;;;-0.82;100.00
14612;BME280;7392;52.078;11.650;2024-01-30T06:58:25;102055.41;;;-0.82;100.00
14612;BME280;7392;52.078;11.650;2024-01-30T07:00:54;102051.00;;;-0.83;100.00
14612;BME280;7392;52.078;11.650;2024-01-30T07:03:22;102056.13;;;-0.85;100.00
14612;BME280;7392;52.078;11.650;2024-01-30T07:05:50;102058.72;;;-0.85;100.00
14612;BME280;7392;52.078;11.650;2024-01-30T07:08:18;102054.28;;;-0.86;100.00
14612;BME280;7392;52.078;11.650;2024-01-30T07:10:46;102061.13;;;-0.88;100.00
14612;BME280;7392;52.078;11.650;2024-01-30T07:13:14;102053.91;;;-0.92;100.00
14612;BME280;7392;52.078;11.650;2024-01-30T07:15:44;102052.09;;;-0.93;100.00
14612;BME280;7392;52.078;11.650;2024-01-30T07:18:13;102050.22;;;-0.96;100.00
14612;BME280;7392;52.078;11.650;2024-01-30T07:20:41;102056.22;;;-0.97;100.00
14612;BME280;7392;52.078;11.650;2024-01-30T07:23:12;102056.13;;;-0.98;100.00
14612;BME280;7392;52.078;11.650;2024-01-30T07:25:43;102062.13;;;-0.99;100.00
14612;BME280;7392;52.078;11.650;2024-01-30T07:28:15;102056.00;;;-1.00;100.00
14612;BME280;7392;52.078;11.650;2024-01-30T07:30:45;102053.41;;;-1.00;100.00
14612;BME280;7392;52.078;11.650;2024-01-30T07:33:14;102058.81;;;-0.97;100.00
14612;BME280;7392;52.078;11.650;2024-01-30T07:35:43;102045.78;;;-0.97;100.00
14612;BME280;7392;52.078;11.650;2024-01-30T07:38:11;102052.00;;;-0.95;100.00
14612;BME280;7392;52.078;11.650;2024-01-30T07:40:39;102055.59;;;-0.92;100.00
14612;BME280;7392;52.078;11.650;2024-01-30T07:43:08;102042.56;;;-0.92;100.00
14612;BME280;7392;52.078;11.650;2024-01-30T07:45:37;102041.88;;;-0.90;100.00
14612;BME280;7392;52.078;11.650;2024-01-30T07:48:06;102044.78;;;-0.85;100.00
14612;BME280;7392;52.078;11.650;2024-01-30T07:50:34;102041.56;;;-0.81;100.00
14612;BME280;7392;52.078;11.650;2024-01-30T07:53:03;102033.22;;;-0.76;100.00
14612;BME280;7392;52.078;11.650;2024-01-30T07:55:31;102035.50;;;-0.67;100.00
14612;BME280;7392;52.078;11.650;2024-01-30T07:58:00;102036.69;;;-0.62;100.00
14612;BME280;7392;52.078;11.650;2024-01-30T08:00:28;102031.59;;;-0.60;100.00
14612;BME280;7392;52.078;11.650;2024-01-30T08:02:56;102032.59;;;-0.58;100.00
14612;BME280;7392;52.078;11.650;2024-01-30T08:05:27;102040.59;;;-0.55;100.00
14612;BME280;7392;52.078;11.650;2024-01-30T08:07:55;102033.81;;;-0.53;100.00
14612;BME280;7392;52.078;11.650;2024-01-30T08:10:24;102028.84;;;-0.48;100.00
14612;BME280;7392;52.078;11.650;2024-01-30T08:12:52;102035.25;;;-0.43;100.00
14612;BME280;7392;52.078;11.650;2024-01-30T08:15:20;102033.25;;;-0.34;100.00
14612;BME280;7392;52.078;11.650;2024-01-30T08:17:48;102028.59;;;-0.25;100.00
14612;BME280;7392;52.078;11.650;2024-01-30T08:20:17;102027.44;;;-0.15;100.00
14612;BME280;7392;52.078;11.650;2024-01-30T08:22:47;102030.50;;;-0.07;100.00
14612;BME280;7392;52.078;11.650;2024-01-30T08:25:15;102034.59;;;0.03;100.00
14612;BME280;7392;52.078;11.650;2024-01-30T08:27:44;102039.38;;;0.10;100.00
14612;BME280;7392;52.078;11.650;2024-01-30T08:30:13;102028.50;;;0.17;100.00
14612;BME280;7392;52.078;11.650;2024-01-30T08:32:41;102042.13;;;0.26;100.00
14612;BME280;7392;52.078;11.650;2024-01-30T08:35:09;102038.28;;;0.34;100.00
14612;BME280;7392;52.078;11.650;2024-01-30T08:37:40;102031.84;;;0.44;100.00
14612;BME280;7392;52.078;11.650;2024-01-30T08:40:12;102035.13;;;0.55;100.00
14612;BME280;7392;52.078;11.650;2024-01-30T08:42:44;102033.94;;;0.65;100.00
14612;BME280;7392;52.078;11.650;2024-01-30T08:45:14;102030.34;;;0.78;100.00
14612;BME280;7392;52.078;11.650;2024-01-30T08:47:47;102032.00;;;0.92;100.00
14612;BME280;7392;52.078;11.650;2024-01-30T08:50:18;102032.75;;;1.04;100.00
14612;BME280;7392;52.078;11.650;2024-01-30T08:52:47;102031.03;;;1.21;100.00
14612;BME280;7392;52.078;11.650;2024-01-30T08:55:18;102027.59;;;1.37;100.00
14612;BME280;7392;52.078;11.650;2024-01-30T08:57:46;102026.09;;;1.57;100.00
14612;BME280;7392;52.078;11.650;2024-01-30T09:00:14;102024.34;;;1.74;100.00
14612;BME280;7392;52.078;11.650;2024-01-30T09:02:43;102020.09;;;1.93;100.00
14612;BME280;7392;52.078;11.650;2024-01-30T09:05:11;102020.03;;;2.08;100.00
14612;BME280;7392;52.078;11.650;2024-01-30T09:07:39;102012.16;;;2.24;100.00
14612;BME280;7392;52.078;11.650;2024-01-30T09:10:08;102018.19;;;2.39;100.00
14612;BME280;7392;52.078;11.650;2024-01-30T09:12:41;102019.03;;;2.56;100.00
14612;BME280;7392;52.078;11.650;2024-01-30T09:15:09;102010.22;;;2.72;100.00
14612;BME280;7392;52.078;11.650;2024-01-30T09:17:38;102006.53;;;2.87;100.00
14612;BME280;7392;52.078;11.650;2024-01-30T09:20:06;102017.69;;;3.00;100.00
14612;BME280;7392;52.078;11.650;2024-01-30T09:22:36;102009.53;;;3.12;100.00
14612;BME280;7392;52.078;11.650;2024-01-30T09:25:04;102018.00;;;3.25;100.00
14612;BME280;7392;52.078;11.650;2024-01-30T09:27:32;102009.81;;;3.36;100.00
14612;BME280;7392;52.078;11.650;2024-01-30T09:30:01;102007.69;;;3.47;100.00
14612;BME280;7392;52.078;11.650;2024-01-30T09:32:30;102013.50;;;3.60;100.00
14612;BME280;7392;52.078;11.650;2024-01-30T09:34:58;102007.09;;;3.72;100.00
14612;BME280;7392;52.078;11.650;2024-01-30T09:37:26;102010.34;;;3.86;100.00
14612;BME280;7392;52.078;11.650;2024-01-30T09:39:55;102021.41;;;3.99;100.00
14612;BME280;7392;52.078;11.650;2024-01-30T09:42:27;102016.69;;;4.11;100.00
14612;BME280;7392;52.078;11.650;2024-01-30T09:44:56;102017.16;;;4.22;100.00
14612;BME280;7392;52.078;11.650;2024-01-30T09:47:26;102019.44;;;4.34;100.00
14612;BME280;7392;52.078;11.650;2024-01-30T09:49:55;102019.78;;;4.41;100.00
14612;BME280;7392;52.078;11.650;2024-01-30T09:52:24;102014.75;;;4.47;100.00
14612;BME280;7392;52.078;11.650;2024-01-30T09:54:53;102017.81;;;4.57;100.00
14612;BME280;7392;52.078;11.650;2024-01-30T09:57:21;102023.34;;;4.63;100.00
14612;BME280;7392;52.078;11.650;2024-01-30T09:59:49;102018.31;;;4.69;100.00
14612;BME280;7392;52.078;11.650;2024-01-30T10:02:18;102018.66;;;4.77;100.00
14612;BME280;7392;52.078;11.650;2024-01-30T10:04:49;102018.13;;;4.85;100.00
14612;BME280;7392;52.078;11.650;2024-01-30T10:07:17;102011.38;;;4.92;100.00
14612;BME280;7392;52.078;11.650;2024-01-30T10:09:46;102010.78;;;4.99;100.00
14612;BME280;7392;52.078;11.650;2024-01-30T10:12:15;102016.28;;;5.05;100.00
14612;BME280;7392;52.078;11.650;2024-01-30T10:14:44;102013.03;;;5.11;100.00
14612;BME280;7392;52.078;11.650;2024-01-30T10:17:12;102020.28;;;5.17;100.00
14612;BME280;7392;52.078;11.650;2024-01-30T10:19:55;102021.47;;;5.25;100.00
14612;BME280;7392;52.078;11.650;2024-01-30T10:22:23;102017.28;;;5.30;100.00
14612;BME280;7392;52.078;11.650;2024-01-30T10:24:51;102012.28;;;5.36;100.00
14612;BME280;7392;52.078;11.650;2024-01-30T10:27:25;102009.84;;;5.42;100.00
14612;BME280;7392;52.078;11.650;2024-01-30T10:29:53;102010.94;;;5.48;100.00
14612;BME280;7392;52.078;11.650;2024-01-30T10:32:21;102005.06;;;5.55;100.00
14612;BME280;7392;52.078;11.650;2024-01-30T10:34:49;102009.69;;;5.60;100.00
14612;BME280;7392;52.078;11.650;2024-01-30T10:37:21;102002.91;;;5.67;100.00
14612;BME280;7392;52.078;11.650;2024-01-30T10:39:54;101996.09;;;5.74;100.00
14612;BME280;7392;52.078;11.650;2024-01-30T10:42:26;101996.28;;;5.78;100.00
14612;BME280;7392;52.078;11.650;2024-01-30T10:44:58;101998.25;;;5.84;100.00
14612;BME280;7392;52.078;11.650;2024-01-30T10:47:28;101990.56;;;5.90;100.00
14612;BME280;7392;52.078;11.650;2024-01-30T10:49:57;101988.19;;;5.96;100.00
14612;BME280;7392;52.078;11.650;2024-01-30T10:52:26;101980.50;;;6.03;100.00
14612;BME280;7392;52.078;11.650;2024-01-30T10:54:56;101981.63;;;6.09;100.00
14612;BME280;7392;52.078;11.650;2024-01-30T10:57:25;101986.22;;;6.15;100.00
14612;BME280;7392;52.078;11.650;2024-01-30T10:59:56;101989.19;;;6.24;100.00
14612;BME280;7392;52.078;11.650;2024-01-30T11:02:25;101985.91;;;6.31;100.00
14612;BME280;7392;52.078;11.650;2024-01-30T11:04:56;101981.78;;;6.40;100.00
14612;BME280;7392;52.078;11.650;2024-01-30T11:07:28;101976.75;;;6.47;100.00
14612;BME280;7392;52.078;11.650;2024-01-30T11:10:00;101976.16;;;6.54;100.00
14612;BME280;7392;52.078;11.650;2024-01-30T11:12:30;101974.63;;;6.61;100.00
14612;BME280;7392;52.078;11.650;2024-01-30T11:15:04;101965.19;;;6.69;100.00
14612;BME280;7392;52.078;11.650;2024-01-30T11:17:43;101964.56;;;6.77;100.00
14612;BME280;7392;52.078;11.650;2024-01-30T11:20:12;101958.63;;;6.84;100.00
14612;BME280;7392;52.078;11.650;2024-01-30T11:22:44;101956.16;;;6.90;100.00
14612;BME280;7392;52.078;11.650;2024-01-30T11:25:14;101955.53;;;6.97;100.00
14612;BME280;7392;52.078;11.650;2024-01-30T11:27:42;101949.66;;;7.06;100.00
14612;BME280;7392;52.078;11.650;2024-01-30T11:30:20;101949.03;;;7.15;100.00
14612;BME280;7392;52.078;11.650;2024-01-30T11:32:58;101950.28;;;7.27;100.00
14612;BME280;7392;52.078;11.650;2024-01-30T11:35:30;101950.63;;;7.38;100.00
14612;BME280;7392;52.078;11.650;2024-01-30T11:38:00;101950.91;;;7.47;100.00
14612;BME280;7392;52.078;11.650;2024-01-30T11:40:28;101944.97;;;7.56;100.00
14612;BME280;7392;52.078;11.650;2024-01-30T11:42:58;101945.31;;;7.67;100.00
14612;BME280;7392;52.078;11.650;2024-01-30T11:45:27;101946.41;;;7.75;100.00
14612;BME280;7392;52.078;11.650;2024-01-30T11:47:55;101940.47;;;7.84;99.84
14612;BME280;7392;52.078;11.650;2024-01-30T11:50:25;101936.28;;;7.92;99.54
14612;BME280;7392;52.078;11.650;2024-01-30T11:52:54;101936.50;;;8.00;99.29
14612;BME280;7392;52.078;11.650;2024-01-30T11:55:24;101926.13;;;8.08;98.98
14612;BME280;7392;52.078;11.650;2024-01-30T11:57:55;101933.41;;;8.15;98.49
14612;BME280;7392;52.078;11.650;2024-01-30T12:00:24;101930.94;;;8.22;98.35
14612;BME280;7392;52.078;11.650;2024-01-30T12:02:54;101916.91;;;8.27;98.23
14612;BME280;7392;52.078;11.650;2024-01-30T12:05:24;101932.09;;;8.32;97.86
14612;BME280;7392;52.078;11.650;2024-01-30T12:07:52;101919.81;;;8.36;97.98
14612;BME280;7392;52.078;11.650;2024-01-30T12:10:21;101918.97;;;8.38;97.94
14612;BME280;7392;52.078;11.650;2024-01-30T12:12:51;101919.94;;;8.40;97.63
14612;BME280;7392;52.078;11.650;2024-01-30T12:15:21;101918.28;;;8.44;97.83
14612;BME280;7392;52.078;11.650;2024-01-30T12:17:49;101918.34;;;8.47;97.24
14612;BME280;7392;52.078;11.650;2024-01-30T12:20:18;101914.97;;;8.53;97.56
14612;BME280;7392;52.078;11.650;2024-01-30T12:22:49;101910.72;;;8.59;97.34
14612;BME280;7392;52.078;11.650;2024-01-30T12:25:19;101916.13;;;8.64;97.06
14612;BME280;7392;52.078;11.650;2024-01-30T12:27:52;101911.03;;;8.72;96.95
14612;BME280;7392;52.078;11.650;2024-01-30T12:30:21;101901.44;;;8.77;96.99
14612;BME280;7392;52.078;11.650;2024-01-30T12:32:50;101906.88;;;8.83;96.29
14612;BME280;7392;52.078;11.650;2024-01-30T12:35:20;101915.78;;;8.87;96.08
14612;BME280;7392;52.078;11.650;2024-01-30T12:37:49;101900.00;;;8.93;96.00
14612;BME280;7392;52.078;11.650;2024-01-30T12:40:17;101893.97;;;8.98;95.82
14612;BME280;7392;52.078;11.650;2024-01-30T12:42:47;101899.41;;;9.05;95.73
14612;BME280;7392;52.078;11.650;2024-01-30T12:45:18;101901.31;;;9.12;95.98
14612;BME280;7392;52.078;11.650;2024-01-30T12:47:49;101899.69;;;9.18;95.63
14612;BME280;7392;52.078;11.650;2024-01-30T12:50:18;101895.41;;;9.24;95.66
14612;BME280;7392;52.078;11.650;2024-01-30T12:52:46;101888.44;;;9.29;95.06